createdAt,value
2022-11-29T00:00:26.776Z,1.90
2022-11-29T00:05:46.988Z,2.63
2022-11-29T00:11:07.195Z,1.93
2022-11-29T00:16:27.340Z,2.60
2022-11-29T00:21:48.396Z,2.30
2022-11-29T00:27:08.353Z,2.10
2022-11-29T00:32:28.487Z,1.90
2022-11-29T00:37:48.541Z,2.37
2022-11-29T00:43:08.668Z,2.13
2022-11-29T00:48:28.741Z,2.10
2022-11-29T00:53:48.904Z,2.10
2022-11-29T00:59:08.959Z,2.43
2022-11-29T01:04:29.245Z,1.93
2022-11-29T01:09:49.573Z,2.17
2022-11-29T01:15:09.590Z,2.20
2022-11-29T01:20:29.801Z,1.90
2022-11-29T01:25:49.989Z,2.30
2022-11-29T01:31:10.141Z,2.20
2022-11-29T01:36:30.170Z,2.20
2022-11-29T01:41:50.472Z,2.13
2022-11-29T01:47:10.511Z,2.23
2022-11-29T01:52:30.670Z,2.30
2022-11-29T01:57:50.813Z,2.07
2022-11-29T02:03:11.186Z,2.40
2022-11-29T02:08:31.212Z,2.20
2022-11-29T02:13:51.357Z,2.53
2022-11-29T02:19:11.431Z,2.00
2022-11-29T02:24:31.677Z,1.90
2022-11-29T02:29:51.715Z,2.50
2022-11-29T02:35:11.851Z,2.00
2022-11-29T02:40:31.932Z,2.80
2022-11-29T02:45:52.204Z,2.63
2022-11-29T02:51:12.129Z,2.53
2022-11-29T02:56:32.336Z,2.00
2022-11-29T03:01:52.450Z,2.23
2022-11-29T03:07:12.595Z,2.47
2022-11-29T03:12:32.727Z,2.07
2022-11-29T03:17:52.786Z,2.50
2022-11-29T03:23:12.891Z,2.60
2022-11-29T03:28:33.050Z,2.30
2022-11-29T03:33:53.006Z,2.13
2022-11-29T03:39:13.187Z,2.80
2022-11-29T03:44:33.322Z,2.70
2022-11-29T03:49:53.374Z,2.47
2022-11-29T03:55:13.432Z,2.60
2022-11-29T04:00:33.647Z,2.17
2022-11-29T04:05:53.901Z,2.50
2022-11-29T04:11:14.000Z,2.57
2022-11-29T04:16:34.071Z,2.50
2022-11-29T04:21:54.291Z,2.67
2022-11-29T04:27:14.561Z,3.10
2022-11-29T04:32:34.441Z,2.67
2022-11-29T04:37:54.544Z,2.67
2022-11-29T04:43:14.666Z,2.90
2022-11-29T04:48:34.862Z,2.50
2022-11-29T04:53:55.037Z,2.37
2022-11-29T04:59:15.289Z,2.80
2022-11-29T05:04:35.604Z,2.87
2022-11-29T05:09:55.635Z,2.87
2022-11-29T05:15:15.735Z,2.40
2022-11-29T05:20:35.938Z,2.90
2022-11-29T05:25:56.052Z,2.93
2022-11-29T05:31:16.267Z,2.70
2022-11-29T05:36:36.403Z,2.40
2022-11-29T05:41:56.514Z,2.70
2022-11-29T05:47:16.631Z,2.67
2022-11-29T05:52:36.837Z,2.73
2022-11-29T05:57:56.995Z,2.70
2022-11-29T06:03:17.226Z,3.27
2022-11-29T06:08:37.279Z,2.50
2022-11-29T06:13:57.419Z,3.20
2022-11-29T06:19:17.471Z,2.93
2022-11-29T06:24:37.702Z,3.47
2022-11-29T06:29:57.842Z,2.67
2022-11-29T06:35:18.047Z,2.93
2022-11-29T06:40:38.022Z,3.43
2022-11-29T06:45:58.109Z,2.90
2022-11-29T06:51:18.290Z,3.00
2022-11-29T06:56:40.777Z,3.20
2022-11-29T07:02:01.266Z,3.17
2022-11-29T07:07:21.420Z,3.27
2022-11-29T07:12:41.475Z,3.17
2022-11-29T07:18:01.469Z,3.20
2022-11-29T07:23:21.523Z,2.93
2022-11-29T07:28:41.720Z,2.70
2022-11-29T07:34:01.849Z,3.00
2022-11-29T07:39:21.986Z,3.30
2022-11-29T07:44:42.100Z,2.67
2022-11-29T07:50:02.453Z,3.17
2022-11-29T07:55:22.641Z,3.43
2022-11-29T08:00:43.034Z,2.60
2022-11-29T08:06:03.147Z,3.10
2022-11-29T08:11:23.196Z,3.60
2022-11-29T08:16:43.332Z,3.27
2022-11-29T08:22:03.506Z,3.10
2022-11-29T08:27:23.621Z,2.83
2022-11-29T08:32:49.939Z,3.73
2022-11-29T08:38:11.217Z,3.20
2022-11-29T08:43:31.221Z,2.50
2022-11-29T08:48:51.510Z,3.20
2022-11-29T08:54:11.689Z,3.33
2022-11-29T08:59:31.912Z,3.23
2022-11-29T09:04:52.044Z,3.20
2022-11-29T09:10:12.222Z,3.13
2022-11-29T09:15:32.374Z,3.27
2022-11-29T09:20:52.468Z,3.60
2022-11-29T09:26:12.541Z,3.73
2022-11-29T09:31:32.756Z,3.40
2022-11-29T09:36:52.835Z,3.30
2022-11-29T09:42:13.159Z,3.20
2022-11-29T09:47:33.237Z,2.87
2022-11-29T09:52:53.483Z,3.57
2022-11-29T09:58:13.518Z,4.20
2022-11-29T10:09:17.989Z,3.50
2022-11-29T10:14:38.029Z,2.73
2022-11-29T10:19:58.242Z,3.00
2022-11-29T10:25:18.403Z,3.03
2022-11-29T10:30:38.665Z,3.40
2022-11-29T10:35:58.739Z,4.03
2022-11-29T10:41:18.907Z,3.40
2022-11-29T10:46:38.935Z,3.63
2022-11-29T10:51:59.039Z,3.27
2022-11-29T10:57:19.119Z,4.33
2022-11-29T11:02:39.496Z,3.67
2022-11-29T11:07:59.608Z,3.50
2022-11-29T11:13:19.812Z,3.80
2022-11-29T11:18:39.962Z,9.47
2022-11-29T11:24:00.031Z,7.47
2022-11-29T11:29:20.067Z,5.93
2022-11-29T11:34:40.195Z,5.93
2022-11-29T11:40:00.403Z,6.03
2022-11-29T11:45:20.479Z,6.07
2022-11-29T11:50:40.615Z,5.03
2022-11-29T11:56:00.817Z,5.80
2022-11-29T12:01:20.963Z,7.47
2022-11-29T12:06:41.197Z,6.30
2022-11-29T12:12:01.668Z,6.50
2022-11-29T12:17:21.683Z,9.53
2022-11-29T12:22:46.702Z,7.47
2022-11-29T12:28:08.665Z,9.23
2022-11-29T12:33:28.831Z,10.07
2022-11-29T12:38:48.975Z,9.60
2022-11-29T12:44:08.944Z,6.97
2022-11-29T12:49:29.086Z,8.33
2022-11-29T12:54:49.223Z,6.03
2022-11-29T13:00:09.378Z,6.93
2022-11-29T13:05:29.417Z,7.33
2022-11-29T13:10:49.553Z,8.13
2022-11-29T13:16:09.829Z,9.10
2022-11-29T13:21:29.949Z,8.23
2022-11-29T13:26:50.134Z,10.23
2022-11-29T13:32:14.503Z,9.77
2022-11-29T13:37:34.473Z,9.47
2022-11-29T13:42:54.837Z,13.20
2022-11-29T13:48:15.059Z,9.40
2022-11-29T13:53:35.268Z,10.77
2022-11-29T13:58:55.384Z,8.67
2022-11-29T14:04:15.425Z,8.13
2022-11-29T14:09:35.548Z,9.43
2022-11-29T14:14:55.635Z,8.33
2022-11-29T14:20:15.822Z,12.03
2022-11-29T14:25:51.024Z,9.33
2022-11-29T14:31:12.290Z,8.70
2022-11-29T14:36:32.283Z,9.33
2022-11-29T14:41:52.361Z,8.97
2022-11-29T14:47:12.579Z,12.00
2022-11-29T14:52:32.652Z,10.27
2022-11-29T14:57:52.792Z,11.63
2022-11-29T15:03:12.900Z,12.07
2022-11-29T15:08:33.085Z,9.17
2022-11-29T15:13:53.282Z,8.27
2022-11-29T15:19:13.409Z,11.37
2022-11-29T15:24:33.468Z,11.07
2022-11-29T15:29:53.591Z,8.80
2022-11-29T15:35:13.637Z,7.20
2022-11-29T15:40:33.881Z,8.30
2022-11-29T15:45:53.937Z,9.47
2022-11-29T15:51:14.136Z,8.23
2022-11-29T15:56:34.463Z,8.40
2022-11-29T16:01:54.837Z,8.33
2022-11-29T16:07:14.931Z,8.50
2022-11-29T16:12:35.097Z,9.00
2022-11-29T16:17:55.111Z,8.57
2022-11-29T16:23:15.279Z,8.33
2022-11-29T16:28:35.318Z,8.17
2022-11-29T16:33:55.547Z,7.57
2022-11-29T16:39:15.673Z,8.10
2022-11-29T16:44:36.040Z,7.20
2022-11-29T16:49:56.053Z,6.63
2022-11-29T16:55:16.285Z,6.33
2022-11-29T17:00:36.442Z,7.10
2022-11-29T17:05:56.683Z,6.50
2022-11-29T17:11:16.839Z,7.40
2022-11-29T17:16:37.093Z,7.43
2022-11-29T17:21:57.228Z,7.77
2022-11-29T17:27:17.608Z,6.57
2022-11-29T17:32:37.757Z,7.50
2022-11-29T17:37:58.070Z,6.97
2022-11-29T17:43:18.228Z,7.73
2022-11-29T17:48:38.473Z,7.07
2022-11-29T17:53:58.719Z,6.37
2022-11-29T17:59:18.878Z,7.53
2022-11-29T18:04:39.080Z,6.70
2022-11-29T18:09:59.318Z,6.53
2022-11-29T18:15:19.397Z,6.70
2022-11-29T18:20:39.558Z,6.87
2022-11-29T18:25:59.610Z,7.43
2022-11-29T18:31:19.995Z,8.53
2022-11-29T18:36:40.175Z,7.87
2022-11-29T18:42:00.288Z,10.07
2022-11-29T18:47:20.423Z,5.83
2022-11-29T18:52:40.972Z,8.13
2022-11-29T18:58:00.878Z,7.50
2022-11-29T19:03:21.001Z,7.87
2022-11-29T19:08:41.072Z,8.60
2022-11-29T19:14:01.178Z,7.70
2022-11-29T19:19:21.134Z,7.03
2022-11-29T19:24:41.258Z,6.60
2022-11-29T19:30:01.450Z,6.50
2022-11-29T19:35:21.644Z,6.70
2022-11-29T19:40:41.895Z,7.17
2022-11-29T19:46:01.921Z,7.00
2022-11-29T19:51:22.005Z,6.43
2022-11-29T19:56:42.092Z,6.90
2022-11-29T20:02:02.553Z,7.70
2022-11-29T20:07:22.844Z,6.83
2022-11-29T20:12:42.970Z,7.20
2022-11-29T20:18:02.925Z,6.93
2022-11-29T20:23:23.142Z,7.90
2022-11-29T20:28:43.197Z,7.27
2022-11-29T20:34:03.353Z,6.40
2022-11-29T20:39:23.583Z,7.27
2022-11-29T20:44:43.902Z,6.50
2022-11-29T20:50:04.041Z,6.60
2022-11-29T20:55:24.173Z,5.80
2022-11-29T21:00:47.267Z,5.07
2022-11-29T21:06:07.313Z,6.97
2022-11-29T21:11:27.395Z,5.43
2022-11-29T21:16:47.522Z,7.70
2022-11-29T21:22:07.600Z,7.10
2022-11-29T21:27:27.780Z,5.90
2022-11-29T21:32:47.805Z,6.27
2022-11-29T21:38:07.899Z,6.27
2022-11-29T21:43:57.956Z,7.53
2022-11-29T21:49:07.802Z,6.20
2022-11-29T21:54:27.925Z,6.90
2022-11-29T21:59:47.964Z,6.77
2022-11-29T22:05:08.180Z,5.63
2022-11-29T22:10:28.330Z,5.73
2022-11-29T22:15:48.620Z,5.87
2022-11-29T22:21:08.605Z,5.60
2022-11-29T22:26:28.832Z,6.10
2022-11-29T22:31:49.068Z,5.93
2022-11-29T22:37:09.276Z,6.20
2022-11-29T22:42:29.383Z,6.37
2022-11-29T22:47:49.668Z,6.10
2022-11-29T22:53:09.717Z,5.33
2022-11-29T22:58:29.961Z,5.87
2022-11-29T23:03:50.416Z,5.83
2022-11-29T23:09:10.474Z,5.67
2022-11-29T23:14:30.606Z,6.00
2022-11-29T23:19:50.866Z,5.97
2022-11-29T23:25:10.896Z,5.90
2022-11-29T23:30:31.027Z,6.00
2022-11-29T23:35:51.126Z,5.97
2022-11-29T23:41:11.271Z,5.60
2022-11-29T23:46:31.506Z,5.73
2022-11-29T23:51:51.626Z,5.20
2022-11-29T23:57:11.781Z,5.47
